(Default Airport = EGHI - Southampton International)

METAR = EGHI 121020Z 14007KT 110V190 9999 FEW020 BKN035 08/03 Q1022

STATION........ EGHI
OBSERVED....... Wed Dec 12, 10:20 GMT
NOW............ Wed Dec 12, 10:29 GMT
AGE............ 9 min ago
WIND........... SE at 8 mph
VISIBILITY..... 16 miles
CLOUDS......... mostly cloudy
TEMP........... 46°F (8°C)
WIND CHILL..... 42°F (6°C)
DEWPT.......... 37°F (3°C)
HUMIDITY....... 71%
BAROMETER...... 1022 hPa (30.18 in Hg)


    Get Weather Info from Airport: